createdAt,value
2022-11-16T00:01:26.988Z,34.20
2022-11-16T00:06:28.324Z,39.10
2022-11-16T00:09:18.858Z,41.20
2022-11-16T00:11:49.340Z,41.30
2022-11-16T00:14:20.499Z,47.90
2022-11-16T00:16:48.405Z,45.30
2022-11-16T00:19:16.849Z,49.20
2022-11-16T00:21:44.600Z,34.50
2022-11-16T00:24:14.914Z,40.50
2022-11-16T00:26:46.420Z,44.00
2022-11-16T00:42:47.681Z,41.90
2022-11-16T00:45:17.085Z,46.50
2022-11-16T00:47:49.222Z,48.70
2022-11-16T00:50:19.665Z,45.90
2022-11-16T00:52:49.232Z,45.30
2022-11-16T00:55:24.244Z,50.10
2022-11-16T00:57:53.712Z,40.90
2022-11-16T01:00:24.493Z,45.10
2022-11-16T01:02:55.156Z,65.20
2022-11-16T01:05:24.932Z,51.60
2022-11-16T01:07:54.003Z,48.10
2022-11-16T01:10:25.158Z,42.20
2022-11-16T01:15:25.609Z,39.70
2022-11-16T01:17:56.767Z,43.90
2022-11-16T01:22:57.181Z,44.00
2022-11-16T01:25:26.362Z,52.90
2022-11-16T01:28:25.397Z,43.60
2022-11-16T01:30:54.591Z,44.30
2022-11-16T01:33:24.605Z,42.70
2022-11-16T01:35:54.142Z,44.30
2022-11-16T01:38:29.371Z,56.30
2022-11-16T01:40:59.337Z,48.70
2022-11-16T01:43:32.073Z,47.50
2022-11-16T01:46:04.837Z,42.60
2022-11-16T01:48:34.623Z,45.10
2022-11-16T01:51:04.688Z,49.00
2022-11-16T01:53:34.143Z,47.50
2022-11-16T01:56:05.099Z,44.50
2022-11-16T01:59:27.369Z,68.20
2022-11-16T02:05:12.211Z,87.10
2022-11-16T02:08:29.323Z,83.80
2022-11-16T02:11:27.795Z,72.60
2022-11-16T02:14:13.925Z,57.40
2022-11-16T02:17:01.156Z,49.80
2022-11-16T02:20:01.159Z,50.90
2022-11-16T02:22:42.556Z,45.90
2022-11-16T02:25:54.187Z,46.20
2022-11-16T02:31:37.952Z,44.10
2022-11-16T02:34:10.517Z,36.30
2022-11-16T02:36:40.909Z,40.10
2022-11-16T02:39:17.003Z,40.00
2022-11-16T02:41:48.808Z,37.10
2022-11-16T02:44:33.313Z,37.10
2022-11-16T02:47:06.097Z,40.30
2022-11-16T02:49:39.908Z,34.60
2022-11-16T02:52:10.903Z,37.50
2022-11-16T02:54:40.326Z,39.40
2022-11-16T02:57:09.334Z,39.20
2022-11-16T02:59:49.952Z,40.50
2022-11-16T03:02:34.523Z,34.90
2022-11-16T03:05:19.825Z,37.30
2022-11-16T03:08:05.614Z,41.00
2022-11-16T03:10:58.377Z,45.60
2022-11-16T03:13:32.158Z,46.10
2022-11-16T03:16:03.982Z,43.90
2022-11-16T03:18:34.802Z,48.30
2022-11-16T03:21:23.160Z,48.00
2022-11-16T03:24:18.774Z,50.00
2022-11-16T03:27:39.924Z,42.80
2022-11-16T03:30:14.200Z,39.50
2022-11-16T03:33:12.901Z,41.20
2022-11-16T03:35:57.371Z,45.60
2022-11-16T03:38:28.127Z,43.70
2022-11-16T03:41:04.662Z,41.30
2022-11-16T03:43:35.188Z,39.80
2022-11-16T03:49:13.424Z,37.30
2022-11-16T03:51:43.321Z,36.50
2022-11-16T03:54:12.750Z,38.60
2022-11-16T03:56:42.353Z,35.80
2022-11-16T03:59:11.386Z,34.30
2022-11-16T04:01:44.514Z,33.10
2022-11-16T04:04:34.884Z,37.30
2022-11-16T04:07:24.339Z,35.60
2022-11-16T04:10:12.427Z,36.40
